createdAt,value
2022-10-09T00:01:06.235Z,20.72
2022-10-09T00:03:34.482Z,19.12
2022-10-09T00:06:01.576Z,20.25
2022-10-09T00:08:28.314Z,19.67
2022-10-09T00:10:55.444Z,20.25
2022-10-09T00:13:22.679Z,19.87
2022-10-09T00:15:49.411Z,20.23
2022-10-09T00:18:18.576Z,20.29
2022-10-09T00:20:46.882Z,20.48
2022-10-09T00:23:17.703Z,19.62
2022-10-09T00:25:58.360Z,19.14
2022-10-09T00:28:27.372Z,17.02
2022-10-09T00:30:54.641Z,18.64
2022-10-09T00:33:21.950Z,18.95
2022-10-09T00:35:49.104Z,17.90
2022-10-09T00:38:16.876Z,17.22
2022-10-09T00:40:43.615Z,17.77
2022-10-09T00:43:37.820Z,18.63
2022-10-09T00:46:05.206Z,16.44
2022-10-09T00:48:33.798Z,17.79
2022-10-09T00:51:02.177Z,17.09
2022-10-09T00:53:30.807Z,18.75
2022-10-09T00:55:58.423Z,17.74
2022-10-09T00:58:25.870Z,17.99
2022-10-09T01:00:53.257Z,18.78
2022-10-09T01:03:19.985Z,18.81
2022-10-09T01:06:10.442Z,18.58
2022-10-09T01:09:01.334Z,18.10
2022-10-09T01:11:32.181Z,17.12
2022-10-09T01:14:17.239Z,17.90
2022-10-09T01:16:53.650Z,17.72
2022-10-09T01:19:44.991Z,18.02
2022-10-09T01:22:33.701Z,17.58
2022-10-09T01:25:07.500Z,17.78
2022-10-09T01:27:37.350Z,18.37
2022-10-09T01:30:08.502Z,18.33
2022-10-09T01:32:47.563Z,17.70
2022-10-09T01:35:15.609Z,17.89
2022-10-09T01:37:45.786Z,16.39
2022-10-09T01:40:16.217Z,16.82
2022-10-09T01:42:43.386Z,17.02
2022-10-09T01:45:10.951Z,16.38
2022-10-09T01:47:38.381Z,15.58
2022-10-09T01:50:27.437Z,14.82
2022-10-09T01:53:00.321Z,16.11
2022-10-09T01:56:03.791Z,15.91
2022-10-09T01:58:47.456Z,15.90
2022-10-09T02:01:17.986Z,17.24
2022-10-09T02:03:49.086Z,16.10
2022-10-09T02:06:17.750Z,16.75
2022-10-09T02:08:47.119Z,15.58
2022-10-09T02:11:15.443Z,16.91
2022-10-09T02:13:44.596Z,16.61
2022-10-09T02:16:22.556Z,16.43
2022-10-09T02:18:58.377Z,15.78
2022-10-09T02:21:30.556Z,15.42
2022-10-09T02:23:59.099Z,16.04
2022-10-09T02:26:26.995Z,16.59
2022-10-09T02:28:54.783Z,16.21
2022-10-09T02:31:31.167Z,15.64
2022-10-09T02:34:04.094Z,14.93
2022-10-09T02:36:31.713Z,15.68
2022-10-09T02:38:58.709Z,16.26
2022-10-09T02:41:26.615Z,14.55
2022-10-09T02:43:53.847Z,15.21
2022-10-09T02:46:21.150Z,14.44
2022-10-09T02:48:48.293Z,12.93
2022-10-09T02:51:15.038Z,14.36
2022-10-09T02:53:41.830Z,15.56
2022-10-09T02:56:08.914Z,15.19
2022-10-09T02:58:36.401Z,16.56
2022-10-09T03:01:05.076Z,13.23
2022-10-09T03:03:32.490Z,14.79
2022-10-09T03:06:02.397Z,14.97
2022-10-09T03:08:29.191Z,15.38
2022-10-09T03:10:56.389Z,14.74
2022-10-09T03:13:23.831Z,15.08
2022-10-09T03:15:50.608Z,15.54
2022-10-09T03:18:18.286Z,14.95
2022-10-09T03:20:45.306Z,14.41
2022-10-09T03:23:12.150Z,14.47
2022-10-09T03:25:39.085Z,15.83
2022-10-09T03:28:05.917Z,14.28
2022-10-09T03:30:33.474Z,13.92
2022-10-09T03:33:00.278Z,14.59
2022-10-09T03:35:26.970Z,15.79
2022-10-09T03:37:53.645Z,14.64
2022-10-09T03:40:20.642Z,14.04
2022-10-09T03:42:47.947Z,13.61
2022-10-09T03:45:15.469Z,14.97
2022-10-09T03:47:42.123Z,15.14
2022-10-09T03:50:09.349Z,14.56
2022-10-09T03:52:36.416Z,14.57
2022-10-09T03:55:04.966Z,13.18
2022-10-09T03:57:31.924Z,13.16
2022-10-09T03:59:58.614Z,13.44
2022-10-09T04:02:25.588Z,12.33
2022-10-09T04:04:52.364Z,12.86
2022-10-09T04:07:19.109Z,12.43
2022-10-09T04:09:45.832Z,13.58
2022-10-09T04:12:12.525Z,14.63
2022-10-09T04:14:39.514Z,13.75
2022-10-09T04:17:06.264Z,15.08
2022-10-09T04:19:33.451Z,15.20
2022-10-09T04:22:00.545Z,12.74
2022-10-09T04:24:27.264Z,14.41
2022-10-09T04:26:54.046Z,13.17
2022-10-09T04:29:21.046Z,14.65
2022-10-09T04:31:47.913Z,14.12
2022-10-09T04:34:15.476Z,13.67
2022-10-09T04:36:42.193Z,15.05
2022-10-09T04:39:08.901Z,16.45
2022-10-09T04:41:38.263Z,16.16
2022-10-09T04:44:06.005Z,16.17
2022-10-09T04:46:32.902Z,17.30
2022-10-09T04:49:00.361Z,17.04
2022-10-09T04:51:27.058Z,15.96
2022-10-09T04:54:00.302Z,15.87
2022-10-09T04:56:27.405Z,16.28
2022-10-09T04:58:54.115Z,15.88
2022-10-09T05:01:25.990Z,16.56
2022-10-09T05:03:53.483Z,16.76
2022-10-09T05:06:22.020Z,16.90
2022-10-09T05:08:49.498Z,16.81
2022-10-09T05:11:19.622Z,17.11
2022-10-09T05:13:49.665Z,17.13
2022-10-09T05:16:19.722Z,16.34
2022-10-09T05:18:49.717Z,16.01
2022-10-09T05:21:17.593Z,15.29
2022-10-09T05:23:44.454Z,15.94
2022-10-09T05:26:14.877Z,15.58
2022-10-09T05:28:42.406Z,14.62
2022-10-09T05:31:09.621Z,16.02
2022-10-09T05:33:36.802Z,16.21
2022-10-09T05:36:05.850Z,15.70
2022-10-09T05:38:34.784Z,14.13
2022-10-09T05:41:04.962Z,16.74
2022-10-09T05:43:37.217Z,16.14
2022-10-09T05:46:17.940Z,15.33
2022-10-09T05:48:51.009Z,16.24
2022-10-09T05:51:24.337Z,16.48
2022-10-09T05:53:51.592Z,16.56
2022-10-09T05:56:27.546Z,17.11
2022-10-09T05:58:57.042Z,16.34
2022-10-09T06:01:26.627Z,15.60
2022-10-09T06:03:55.539Z,16.00
2022-10-09T06:06:24.869Z,16.45
2022-10-09T06:08:51.990Z,15.97
2022-10-09T06:11:31.688Z,16.64
2022-10-09T06:14:00.725Z,15.15
2022-10-09T06:16:33.465Z,14.96
2022-10-09T06:19:00.538Z,14.79
2022-10-09T06:21:28.467Z,14.66
2022-10-09T06:23:58.558Z,12.00
2022-10-09T06:26:29.207Z,14.60
2022-10-09T06:28:56.811Z,13.94
2022-10-09T06:31:26.847Z,14.45
2022-10-09T06:33:54.457Z,12.73
2022-10-09T06:36:25.134Z,13.73
2022-10-09T06:38:53.150Z,12.88
2022-10-09T06:41:25.681Z,14.12
2022-10-09T06:43:57.279Z,13.95
2022-10-09T06:46:27.342Z,15.35
2022-10-09T06:48:54.360Z,14.19
2022-10-09T06:51:23.373Z,13.68
2022-10-09T06:53:53.243Z,14.37
2022-10-09T06:56:22.535Z,13.96
2022-10-09T06:58:49.723Z,12.04
2022-10-09T07:01:20.736Z,14.88
2022-10-09T07:03:54.139Z,14.06
2022-10-09T07:06:24.272Z,14.32
2022-10-09T07:08:53.535Z,14.43
2022-10-09T07:11:23.408Z,13.85
2022-10-09T07:13:54.398Z,15.33
2022-10-09T07:16:24.411Z,13.79
2022-10-09T07:18:52.006Z,13.21
2022-10-09T07:21:19.917Z,14.16
2022-10-09T07:23:47.416Z,14.55
2022-10-09T07:26:19.131Z,11.96
2022-10-09T07:28:47.299Z,14.22
2022-10-09T07:31:14.895Z,12.67
2022-10-09T07:33:42.001Z,14.70
2022-10-09T07:36:10.027Z,13.55
2022-10-09T07:38:37.374Z,12.19
2022-10-09T07:41:09.421Z,13.11
2022-10-09T07:43:41.065Z,12.45
2022-10-09T07:46:12.258Z,14.59
2022-10-09T07:48:39.462Z,14.19
2022-10-09T07:51:22.398Z,15.92
2022-10-09T07:53:49.711Z,17.35
2022-10-09T07:56:29.164Z,16.17
2022-10-09T07:59:01.435Z,13.47
2022-10-09T08:01:29.386Z,14.17
2022-10-09T08:03:58.381Z,13.40
2022-10-09T08:06:25.230Z,14.17
2022-10-09T08:08:54.198Z,13.99
2022-10-09T08:11:22.459Z,12.98
2022-10-09T08:13:50.542Z,17.08
2022-10-09T08:16:19.599Z,13.91
2022-10-09T08:18:47.321Z,13.74
2022-10-09T08:21:16.952Z,15.06
2022-10-09T08:23:44.314Z,15.92
2022-10-09T08:26:20.090Z,15.85
2022-10-09T08:28:55.423Z,16.16
2022-10-09T08:31:23.204Z,14.65
2022-10-09T08:33:55.094Z,15.03
2022-10-09T08:36:23.498Z,15.10
2022-10-09T08:38:51.494Z,13.34
2022-10-09T08:41:33.112Z,12.28
2022-10-09T08:44:09.915Z,14.32
2022-10-09T08:47:04.577Z,13.72
2022-10-09T08:49:55.221Z,15.61
2022-10-09T08:52:34.818Z,16.76
2022-10-09T08:55:13.185Z,13.83
2022-10-09T08:57:40.170Z,14.24
2022-10-09T09:00:15.648Z,15.31
2022-10-09T09:03:10.966Z,15.89
2022-10-09T09:05:51.970Z,16.74
2022-10-09T09:08:38.091Z,13.40
2022-10-09T09:11:38.730Z,16.63
2022-10-09T09:14:23.993Z,15.57
2022-10-09T09:17:05.767Z,14.40
2022-10-09T09:19:57.290Z,15.43
2022-10-09T09:22:25.166Z,14.41
2022-10-09T09:24:54.665Z,16.02
2022-10-09T09:27:31.656Z,14.16
2022-10-09T09:30:13.406Z,13.99
2022-10-09T09:32:44.422Z,14.23
2022-10-09T09:35:39.962Z,14.51
2022-10-09T09:38:08.139Z,15.17
2022-10-09T09:40:37.255Z,15.98
2022-10-09T09:43:17.761Z,16.54
2022-10-09T09:45:45.828Z,13.77
2022-10-09T09:48:22.524Z,16.33
2022-10-09T09:51:10.260Z,14.37
2022-10-09T09:53:43.636Z,14.49
2022-10-09T09:56:11.054Z,13.09
2022-10-09T09:58:45.799Z,14.85
2022-10-09T10:01:22.708Z,15.22
2022-10-09T10:03:52.250Z,12.28
2022-10-09T10:06:31.611Z,15.90
2022-10-09T10:09:19.258Z,17.41
2022-10-09T10:11:47.550Z,16.80
2022-10-09T10:14:16.378Z,15.81
2022-10-09T10:16:44.094Z,16.18
2022-10-09T10:19:22.742Z,14.38
2022-10-09T10:21:59.746Z,13.73
2022-10-09T10:24:35.773Z,14.63
2022-10-09T10:27:17.125Z,16.28
2022-10-09T10:29:46.973Z,15.62
2022-10-09T10:32:32.894Z,16.46
2022-10-09T10:35:17.192Z,13.47
2022-10-09T10:37:56.980Z,17.64
2022-10-09T10:40:26.947Z,15.34
2022-10-09T10:43:09.301Z,14.74
2022-10-09T10:45:58.549Z,16.65
2022-10-09T10:48:37.267Z,17.01
2022-10-09T10:51:29.218Z,18.59
2022-10-09T10:54:26.871Z,19.30
2022-10-09T10:57:03.183Z,17.74
2022-10-09T10:59:39.832Z,18.80
2022-10-09T11:02:32.518Z,18.21
2022-10-09T11:05:14.649Z,15.57
2022-10-09T11:07:47.337Z,16.98
2022-10-09T11:10:23.170Z,19.06
2022-10-09T11:13:05.146Z,18.60
2022-10-09T11:15:56.443Z,17.39
2022-10-09T11:19:00.496Z,20.28
2022-10-09T11:21:42.822Z,19.26
2022-10-09T11:24:40.162Z,19.05
2022-10-09T11:27:14.005Z,17.54
2022-10-09T11:29:48.429Z,19.48
2022-10-09T11:32:38.520Z,16.98
2022-10-09T11:35:15.842Z,17.03
2022-10-09T11:37:45.437Z,18.52
2022-10-09T11:40:12.066Z,18.39
2022-10-09T11:42:39.631Z,18.17
2022-10-09T11:45:50.135Z,17.51
2022-10-09T11:48:21.818Z,19.17
2022-10-09T11:50:51.412Z,18.87
2022-10-09T11:53:25.071Z,16.69
2022-10-09T11:56:21.848Z,17.56
2022-10-09T11:58:58.602Z,17.20
2022-10-09T12:01:47.616Z,17.38
2022-10-09T12:04:20.913Z,18.01
2022-10-09T12:06:54.847Z,16.69
2022-10-09T12:09:31.426Z,17.89
2022-10-09T12:12:22.924Z,17.40
2022-10-09T12:14:52.039Z,19.20
2022-10-09T12:17:21.579Z,19.25
2022-10-09T12:20:15.658Z,19.01
2022-10-09T12:23:01.424Z,18.23
2022-10-09T12:25:44.203Z,17.84
2022-10-09T12:28:44.839Z,19.45
2022-10-09T12:31:21.851Z,18.66
2022-10-09T12:33:55.150Z,20.03
2022-10-09T12:36:27.103Z,18.46
2022-10-09T12:38:55.377Z,18.50
2022-10-09T12:41:33.826Z,17.32
2022-10-09T12:44:00.714Z,16.69
2022-10-09T12:46:39.323Z,17.10
2022-10-09T12:49:19.273Z,17.40
2022-10-09T12:51:56.355Z,17.11
2022-10-09T12:54:25.648Z,18.99
2022-10-09T12:56:55.202Z,17.24
2022-10-09T12:59:25.119Z,19.64
2022-10-09T13:01:56.842Z,17.36
2022-10-09T13:04:30.954Z,16.00
2022-10-09T13:06:59.819Z,18.65
2022-10-09T13:09:34.204Z,17.19
2022-10-09T13:12:07.934Z,15.99
2022-10-09T13:14:36.529Z,17.14
2022-10-09T13:17:03.682Z,18.02
2022-10-09T13:19:33.645Z,15.56
2022-10-09T13:22:04.014Z,17.37
2022-10-09T13:24:30.755Z,16.74
2022-10-09T13:26:57.557Z,17.33
2022-10-09T13:29:24.466Z,17.27
2022-10-09T13:31:51.194Z,18.37
2022-10-09T13:34:18.931Z,14.33
2022-10-09T13:36:45.727Z,17.43
2022-10-09T13:39:14.906Z,18.26
2022-10-09T13:41:43.810Z,18.53
2022-10-09T13:44:10.930Z,17.37
2022-10-09T13:46:37.848Z,16.72
2022-10-09T13:49:04.657Z,17.13
2022-10-09T13:51:32.104Z,17.83
2022-10-09T13:53:59.081Z,16.48
2022-10-09T13:56:26.167Z,17.61
2022-10-09T13:58:52.997Z,17.14
2022-10-09T14:01:19.904Z,16.83
2022-10-09T14:03:46.642Z,17.03
2022-10-09T14:06:13.406Z,16.61
2022-10-09T14:08:40.141Z,17.84
2022-10-09T14:11:06.955Z,18.10
2022-10-09T14:13:33.718Z,19.22
2022-10-09T14:16:05.305Z,18.50
2022-10-09T14:18:32.123Z,17.23
2022-10-09T14:20:59.162Z,16.44
2022-10-09T14:23:26.420Z,19.09
2022-10-09T14:25:53.194Z,17.93
2022-10-09T14:28:20.008Z,17.66
2022-10-09T14:30:46.827Z,18.43
2022-10-09T14:33:13.554Z,17.75
2022-10-09T14:35:40.347Z,19.70
2022-10-09T14:38:07.109Z,19.40
2022-10-09T14:40:33.798Z,18.31
2022-10-09T14:43:00.761Z,20.51
2022-10-09T14:45:29.292Z,18.26
2022-10-09T14:47:56.971Z,19.52
2022-10-09T14:50:23.746Z,16.60
2022-10-09T14:52:50.915Z,18.50
2022-10-09T14:55:17.971Z,17.99
2022-10-09T14:57:44.802Z,16.05
2022-10-09T15:00:12.684Z,16.31
2022-10-09T15:02:39.667Z,16.90
2022-10-09T15:05:07.370Z,16.23
2022-10-09T15:07:34.424Z,15.63
2022-10-09T15:10:01.160Z,17.37
2022-10-09T15:12:27.887Z,15.99
2022-10-09T15:14:54.753Z,16.69
2022-10-09T15:17:22.115Z,17.64
2022-10-09T15:19:48.822Z,16.05
2022-10-09T15:22:15.753Z,16.66
2022-10-09T15:24:42.414Z,19.01
2022-10-09T15:27:09.491Z,18.54
2022-10-09T15:29:36.249Z,17.47
2022-10-09T15:32:03.906Z,19.62
2022-10-09T15:34:30.901Z,18.82
2022-10-09T15:36:57.621Z,18.72
2022-10-09T15:39:24.420Z,20.69
2022-10-09T15:41:51.109Z,19.13
2022-10-09T15:44:20.088Z,18.92
2022-10-09T15:46:47.859Z,16.82
2022-10-09T15:49:14.966Z,17.47
2022-10-09T15:51:42.351Z,19.81
2022-10-09T15:54:10.894Z,16.13
2022-10-09T15:56:40.134Z,18.40
2022-10-09T15:59:11.022Z,18.60
2022-10-09T16:01:37.756Z,18.85
2022-10-09T16:04:04.554Z,18.66
2022-10-09T16:06:31.369Z,20.60
2022-10-09T16:08:58.702Z,18.49
2022-10-09T16:11:27.005Z,19.48
2022-10-09T16:13:55.677Z,17.86
2022-10-09T16:16:26.089Z,19.79
2022-10-09T16:18:53.772Z,20.55
2022-10-09T16:21:24.406Z,20.57
2022-10-09T16:23:55.848Z,19.59
2022-10-09T16:26:25.435Z,18.80
2022-10-09T16:28:52.823Z,19.39
2022-10-09T16:31:24.518Z,19.38
2022-10-09T16:33:52.145Z,20.67
2022-10-09T16:36:18.867Z,20.28
2022-10-09T16:38:46.474Z,20.77
2022-10-09T16:41:17.963Z,20.62
2022-10-09T16:43:46.491Z,17.39
2022-10-09T16:46:19.404Z,18.59
2022-10-09T16:48:47.181Z,19.29
2022-10-09T16:51:16.831Z,16.74
2022-10-09T16:53:43.854Z,19.09
2022-10-09T16:56:16.519Z,20.39
2022-10-09T16:58:43.821Z,20.42
2022-10-09T17:01:12.466Z,18.06
2022-10-09T17:03:41.410Z,18.51
2022-10-09T17:06:14.532Z,19.22
2022-10-09T17:08:41.743Z,17.57
2022-10-09T17:11:11.746Z,18.55
2022-10-09T17:13:39.625Z,18.57
2022-10-09T17:16:08.191Z,20.66
2022-10-09T17:18:36.127Z,17.83
2022-10-09T17:21:04.634Z,17.85
2022-10-09T17:23:31.791Z,19.59
2022-10-09T17:25:58.965Z,19.05
2022-10-09T17:28:26.826Z,19.51
2022-10-09T17:30:53.535Z,18.34
2022-10-09T17:33:20.362Z,19.31
2022-10-09T17:35:47.077Z,19.96
2022-10-09T17:38:13.933Z,19.17
2022-10-09T17:40:41.697Z,18.92
2022-10-09T17:43:09.030Z,18.82
2022-10-09T17:45:40.652Z,18.51
2022-10-09T17:48:08.681Z,19.82
2022-10-09T17:50:36.381Z,17.56
2022-10-09T17:53:04.121Z,18.54
2022-10-09T17:55:31.237Z,18.16
2022-10-09T17:57:58.418Z,18.62
2022-10-09T18:00:25.279Z,18.28
2022-10-09T18:02:51.999Z,19.57
2022-10-09T18:05:18.750Z,16.72
2022-10-09T18:07:45.397Z,17.06
2022-10-09T18:10:16.036Z,18.54
2022-10-09T18:12:43.766Z,16.71
2022-10-09T18:15:11.070Z,16.07
2022-10-09T18:17:37.815Z,18.99
2022-10-09T18:20:04.999Z,18.65
2022-10-09T18:22:32.040Z,18.05
2022-10-09T18:24:58.777Z,16.26
2022-10-09T18:27:25.885Z,18.51
2022-10-09T18:29:52.576Z,17.89
2022-10-09T18:32:19.298Z,17.23
2022-10-09T18:34:46.679Z,17.87
2022-10-09T18:37:13.865Z,17.26
2022-10-09T18:39:40.581Z,17.22
2022-10-09T18:42:07.375Z,18.16
2022-10-09T18:44:40.481Z,15.94
2022-10-09T18:47:12.824Z,17.08
2022-10-09T18:49:44.353Z,17.31
2022-10-09T18:52:13.016Z,17.23
2022-10-09T18:54:42.859Z,18.86
2022-10-09T18:57:10.903Z,18.31
2022-10-09T18:59:39.143Z,18.47
2022-10-09T19:02:06.569Z,18.73
2022-10-09T19:04:33.695Z,17.28
2022-10-09T19:07:00.943Z,18.16
2022-10-09T19:09:28.059Z,18.46
2022-10-09T19:11:54.942Z,17.08
2022-10-09T19:14:21.834Z,17.79
2022-10-09T19:16:48.707Z,17.97
2022-10-09T19:19:15.471Z,18.73
2022-10-09T19:21:44.062Z,18.51
2022-10-09T19:24:12.921Z,17.36
2022-10-09T19:26:40.269Z,17.83
2022-10-09T19:29:07.949Z,17.57
2022-10-09T19:31:36.129Z,18.13
2022-10-09T19:34:04.774Z,19.04
2022-10-09T19:36:34.275Z,17.36
2022-10-09T19:39:01.757Z,17.60
2022-10-09T19:41:29.059Z,17.85
2022-10-09T19:43:56.103Z,14.66
2022-10-09T19:46:22.888Z,15.11
2022-10-09T19:48:50.505Z,15.00
2022-10-09T19:51:23.026Z,15.88
2022-10-09T19:53:52.080Z,16.22
2022-10-09T19:56:22.775Z,16.52
2022-10-09T19:58:49.746Z,15.17
2022-10-09T20:01:20.231Z,16.29
2022-10-09T20:03:48.250Z,15.50
2022-10-09T20:06:15.218Z,16.02
2022-10-09T20:08:43.371Z,17.20
2022-10-09T20:11:11.661Z,15.73
2022-10-09T20:13:39.637Z,17.10
2022-10-09T20:16:10.185Z,16.91
2022-10-09T20:18:39.453Z,17.06
2022-10-09T20:21:06.661Z,16.04
2022-10-09T20:23:33.365Z,15.66
2022-10-09T20:26:05.266Z,16.98
2022-10-09T20:28:34.157Z,16.59
2022-10-09T20:31:06.492Z,16.59
2022-10-09T20:33:38.408Z,15.19
2022-10-09T20:36:06.330Z,14.78
2022-10-09T20:38:33.694Z,15.93
2022-10-09T20:41:08.265Z,15.72
2022-10-09T20:43:35.873Z,15.93
2022-10-09T20:46:11.779Z,17.03
2022-10-09T20:48:38.476Z,17.10
2022-10-09T20:51:05.758Z,15.24
2022-10-09T20:53:32.854Z,16.10
2022-10-09T20:56:05.060Z,16.05
2022-10-09T20:58:32.553Z,15.27
2022-10-09T21:00:59.857Z,15.72
2022-10-09T21:03:26.973Z,16.52
2022-10-09T21:05:53.819Z,13.29
2022-10-09T21:08:20.545Z,14.82
2022-10-09T21:10:49.526Z,14.94
2022-10-09T21:13:16.865Z,15.81
2022-10-09T21:15:49.041Z,14.72
2022-10-09T21:18:17.922Z,15.55
2022-10-09T21:20:46.265Z,16.24
2022-10-09T21:23:15.572Z,16.62
2022-10-09T21:25:53.387Z,17.03
2022-10-09T21:28:21.842Z,15.69
2022-10-09T21:30:49.719Z,17.04
2022-10-09T21:33:17.600Z,17.05
2022-10-09T21:35:50.262Z,15.31
2022-10-09T21:38:19.302Z,16.37
2022-10-09T21:40:47.113Z,15.99
2022-10-09T21:43:14.257Z,16.83
2022-10-09T21:45:41.472Z,15.94
2022-10-09T21:48:08.808Z,15.97
2022-10-09T21:50:36.801Z,14.97
2022-10-09T21:53:04.515Z,16.69
2022-10-09T21:55:31.514Z,16.84
2022-10-09T21:57:58.648Z,16.75
2022-10-09T22:00:25.877Z,16.98
2022-10-09T22:02:53.050Z,16.99
2022-10-09T22:05:19.967Z,14.64
2022-10-09T22:07:46.770Z,16.01
2022-10-09T22:10:14.533Z,15.31
2022-10-09T22:12:41.277Z,15.43
2022-10-09T22:15:08.213Z,16.18
2022-10-09T22:17:34.955Z,15.77
2022-10-09T22:20:01.731Z,16.30
2022-10-09T22:22:28.841Z,15.67
2022-10-09T22:24:55.949Z,16.02
2022-10-09T22:27:22.669Z,17.21
2022-10-09T22:29:49.342Z,17.34
2022-10-09T22:32:16.248Z,17.61
2022-10-09T22:34:42.974Z,17.25
2022-10-09T22:37:09.702Z,15.53
2022-10-09T22:39:36.387Z,17.43
2022-10-09T22:42:03.113Z,18.11
2022-10-09T22:44:29.906Z,18.55
2022-10-09T22:46:56.686Z,18.36
2022-10-09T22:49:23.375Z,17.78
2022-10-09T22:51:50.214Z,17.32
2022-10-09T22:54:19.202Z,17.41
2022-10-09T22:56:46.500Z,18.55
2022-10-09T22:59:20.482Z,18.19
2022-10-09T23:01:53.570Z,16.12
2022-10-09T23:04:21.995Z,16.60
2022-10-09T23:06:54.390Z,17.72
2022-10-09T23:09:23.084Z,17.65
2022-10-09T23:11:50.066Z,17.68
2022-10-09T23:14:17.216Z,18.86
2022-10-09T23:16:44.319Z,17.24
2022-10-09T23:19:11.879Z,17.67
2022-10-09T23:21:42.165Z,18.78
2022-10-09T23:24:11.598Z,18.56
2022-10-09T23:26:38.585Z,19.35
2022-10-09T23:29:08.882Z,19.29
2022-10-09T23:31:36.674Z,18.84
2022-10-09T23:34:05.159Z,18.36
2022-10-09T23:36:32.236Z,17.61
2022-10-09T23:39:01.516Z,17.50
2022-10-09T23:41:29.622Z,18.50
2022-10-09T23:43:57.327Z,18.49
2022-10-09T23:46:26.994Z,18.18
2022-10-09T23:48:54.007Z,18.95
2022-10-09T23:51:23.131Z,19.31
2022-10-09T23:53:50.098Z,18.96
2022-10-09T23:56:21.545Z,19.03
2022-10-09T23:58:48.691Z,18.99
